Terminal Aerodrome Forecast
Issued by NWS Bismarck, ND

Home | Current Version | Previous Version | Text Only | Print | Product List | Glossary On
Versions: 1 2 3 4 5 6 7 8 9 10 11 12 13
000
FTUS43 KBIS 242325
TAFISN
TAF
KISN 242325Z 2500/2524 13006KT P6SM SCT100
     FM251000 04006KT P6SM SCT035 OVC060
     FM251500 08006KT P6SM OVC050
     FM252000 16006KT P6SM BKN080=

USA.gov is the U.S. government's official web portal to all federal, state and local government web resources and services.